Time;durP1;ratioP1;P1;durP2;ratioP2;P2;SDS_P1;SDS_P2;PMS_P1;PMS_P2;Temp;Humidity;BMP_temperature;BMP_pressure;BME280_temperature;BME280_humidity;BME280_pressure;Samples;Min_cycle;Max_cycle;Signal;HPM_P1;HPM_P2
2023/09/27 00:01:14;;;;;;;3.60;2.57;;;13.80;99.90;;;;;;5051231;28;20841;-71
2023/09/27 00:03:42;;;;;;;3.10;2.53;;;13.70;99.90;;;;;;5034642;28;20207;-71
2023/09/27 00:06:07;;;;;;;6.00;2.70;;;13.70;99.90;;;;;;5052388;28;20225;-71
2023/09/27 00:08:33;;;;;;;3.40;2.97;;;13.70;99.90;;;;;;5050991;28;20508;-71
2023/09/27 00:10:58;;;;;;;3.10;2.27;;;13.70;99.90;;;;;;5052281;28;20184;-71
2023/09/27 00:13:24;;;;;;;7.23;2.17;;;13.60;99.90;;;;;;5052314;28;20175;-71
2023/09/27 00:15:50;;;;;;;6.20;2.97;;;13.60;99.90;;;;;;5052166;28;20196;-70
2023/09/27 00:18:16;;;;;;;5.43;2.67;;;13.50;99.90;;;;;;5050978;28;20205;-71
2023/09/27 00:20:41;;;;;;;5.00;2.73;;;13.50;99.90;;;;;;5052067;28;20653;-71
2023/09/27 00:23:08;;;;;;;3.73;3.03;;;13.40;99.90;;;;;;5050784;28;20441;-71
2023/09/27 00:25:33;;;;;;;4.40;2.40;;;13.40;99.90;;;;;;5050614;28;20219;-71
2023/09/27 00:27:59;;;;;;;4.30;2.87;;;13.40;99.90;;;;;;5050746;28;20447;-71
2023/09/27 00:30:24;;;;;;;4.40;3.00;;;13.30;99.90;;;;;;5052013;28;20230;-71
2023/09/27 00:32:52;;;;;;;4.33;2.77;;;13.30;99.90;;;;;;5050724;28;20178;-71
2023/09/27 00:35:22;;;;;;;4.03;3.10;;;13.20;99.90;;;;;;5051848;28;20227;-71
2023/09/27 00:37:49;;;;;;;4.63;3.03;;;13.20;99.90;;;;;;5050805;28;20421;-71
2023/09/27 00:40:17;;;;;;;3.50;2.87;;;13.20;99.90;;;;;;5051807;28;20427;-71
2023/09/27 00:42:42;;;;;;;4.23;2.53;;;13.20;99.90;;;;;;5050476;28;20912;-71
2023/09/27 00:45:08;;;;;;;5.90;3.00;;;13.10;99.90;;;;;;5050289;28;20473;-70
2023/09/27 00:47:37;;;;;;;3.30;2.53;;;13.10;99.90;;;;;;5049593;28;20219;-71
2023/09/27 00:50:03;;;;;;;3.70;3.13;;;13.10;99.90;;;;;;5051588;28;20414;-71
2023/09/27 00:52:28;;;;;;;4.27;3.00;;;13.00;99.90;;;;;;5051665;28;20468;-71
2023/09/27 00:54:54;;;;;;;3.77;2.97;;;13.10;99.90;;;;;;5050154;28;20936;-71
2023/09/27 00:57:22;;;;;;;4.43;2.80;;;13.00;99.90;;;;;;5051418;28;20225;-71
2023/09/27 00:59:48;;;;;;;3.80;3.17;;;13.00;99.90;;;;;;5050124;28;20878;-71
2023/09/27 01:02:14;;;;;;;5.27;3.40;;;12.90;99.90;;;;;;5051442;28;20525;-71
2023/09/27 01:04:40;;;;;;;3.37;3.07;;;12.80;99.90;;;;;;5051152;28;21024;-71
2023/09/27 01:07:07;;;;;;;3.43;3.13;;;12.80;99.90;;;;;;5051413;28;20413;-71
2023/09/27 01:09:33;;;;;;;4.30;3.10;;;12.80;99.90;;;;;;5050081;28;20420;-71
2023/09/27 01:11:59;;;;;;;3.67;3.13;;;12.80;99.90;;;;;;5049988;28;20418;-71
2023/09/27 01:14:25;;;;;;;5.77;3.90;;;12.70;99.90;;;;;;5051236;28;20202;-71
2023/09/27 01:16:51;;;;;;;6.07;3.70;;;12.70;99.90;;;;;;5051391;28;20237;-71
2023/09/27 01:19:16;;;;;;;5.63;3.40;;;12.70;99.90;;;;;;5033424;28;20417;-71
2023/09/27 01:21:42;;;;;;;7.33;4.40;;;12.60;99.90;;;;;;5033282;28;20183;-71
2023/09/27 01:24:10;;;;;;;6.67;3.67;;;12.60;99.90;;;;;;5049861;28;20707;-71
2023/09/27 01:26:37;;;;;;;5.27;3.90;;;12.60;99.90;;;;;;5051262;28;20188;-71
2023/09/27 01:29:04;;;;;;;5.20;2.93;;;12.60;99.90;;;;;;5051277;28;20425;-71
2023/09/27 01:31:29;;;;;;;4.27;3.43;;;12.50;99.90;;;;;;5051119;28;20410;-71
2023/09/27 01:33:55;;;;;;;6.70;4.43;;;12.50;99.90;;;;;;5050898;28;20419;-71
2023/09/27 01:36:22;;;;;;;6.47;3.73;;;12.40;99.90;;;;;;5049833;28;20207;-71
2023/09/27 01:38:47;;;;;;;4.57;4.10;;;12.40;99.90;;;;;;5051156;28;20551;-71
2023/09/27 01:41:13;;;;;;;6.40;3.87;;;12.40;99.90;;;;;;5050990;28;20502;-71
2023/09/27 01:43:39;;;;;;;4.03;3.70;;;12.40;99.90;;;;;;5050974;28;20579;-71
2023/09/27 01:46:04;;;;;;;5.80;3.87;;;12.40;99.90;;;;;;5050911;28;20203;-71
2023/09/27 01:48:30;;;;;;;5.27;4.10;;;12.40;99.90;;;;;;5050969;28;20190;-71
2023/09/27 01:50:56;;;;;;;5.70;4.13;;;12.40;99.90;;;;;;5051017;28;20178;-71
2023/09/27 01:53:21;;;;;;;4.73;4.20;;;12.40;99.90;;;;;;5050965;28;20210;-71
2023/09/27 01:55:47;;;;;;;5.27;4.70;;;12.30;99.90;;;;;;5049293;28;20246;-71
2023/09/27 01:58:13;;;;;;;5.57;4.30;;;12.30;99.90;;;;;;5050947;28;20241;-71
2023/09/27 02:00:38;;;;;;;4.97;4.47;;;12.40;99.90;;;;;;5054682;28;20449;-71
2023/09/27 02:03:04;;;;;;;4.63;3.97;;;12.40;99.90;;;;;;5054753;28;20176;-71
2023/09/27 02:05:30;;;;;;;5.20;3.93;;;12.40;99.90;;;;;;5054660;28;20215;-72
2023/09/27 02:07:57;;;;;;;6.27;4.30;;;12.40;99.90;;;;;;5054731;28;20489;-72
2023/09/27 02:10:22;;;;;;;3.83;3.07;;;12.40;99.90;;;;;;5054656;28;20430;-72
2023/09/27 02:12:48;;;;;;;3.70;3.40;;;12.50;99.90;;;;;;5054555;28;20412;-71
2023/09/27 02:15:15;;;;;;;3.90;3.50;;;12.50;99.90;;;;;;5053078;28;20203;-71
2023/09/27 02:17:42;;;;;;;5.10;4.00;;;12.30;99.90;;;;;;5053269;28;20187;-72
2023/09/27 02:20:14;;;;;;;4.93;4.53;;;12.20;99.90;;;;;;5054468;28;20421;-71
2023/09/27 02:22:40;;;;;;;4.10;3.80;;;12.10;99.90;;;;;;5054510;28;20463;-71
2023/09/27 02:25:09;;;;;;;5.00;3.70;;;12.00;99.90;;;;;;5053000;28;20543;-71
2023/09/27 02:27:38;;;;;;;8.17;4.30;;;12.10;99.90;;;;;;5054296;28;20410;-71
2023/09/27 02:30:07;;;;;;;5.37;4.33;;;12.10;99.90;;;;;;5052995;28;20429;-72
2023/09/27 02:32:33;;;;;;;5.83;4.30;;;12.00;99.90;;;;;;5054192;28;20409;-71
2023/09/27 02:34:59;;;;;;;5.17;4.50;;;12.00;99.90;;;;;;5054081;28;20430;-71
2023/09/27 02:37:25;;;;;;;6.83;4.43;;;12.00;99.90;;;;;;5054121;28;20420;-72
2023/09/27 02:39:51;;;;;;;4.73;4.00;;;12.10;99.90;;;;;;5054151;28;20450;-71
2023/09/27 02:42:17;;;;;;;13.00;3.87;;;12.10;99.90;;;;;;5036098;28;20543;-71
2023/09/27 02:44:42;;;;;;;7.60;4.80;;;12.10;99.90;;;;;;5052573;28;20222;-71
2023/09/27 02:47:08;;;;;;;5.80;3.53;;;12.10;99.90;;;;;;5053834;28;20188;-71
2023/09/27 02:49:37;;;;;;;3.70;3.10;;;12.20;99.90;;;;;;5053946;28;20190;-71
2023/09/27 02:52:03;;;;;;;5.83;3.13;;;12.10;99.90;;;;;;5052681;28;20180;-71
2023/09/27 02:54:29;;;;;;;3.40;2.83;;;12.20;99.90;;;;;;5053778;28;20812;-71
2023/09/27 02:56:54;;;;;;;6.03;3.50;;;12.20;99.90;;;;;;5053682;28;20451;-71
2023/09/27 02:59:20;;;;;;;3.73;3.43;;;12.20;99.90;;;;;;5053678;28;20194;-71
2023/09/27 03:01:46;;;;;;;3.60;3.10;;;12.20;99.90;;;;;;5052326;28;20192;-72
2023/09/27 03:04:12;;;;;;;3.90;3.10;;;12.20;99.90;;;;;;5053454;28;20286;-71
2023/09/27 03:06:39;;;;;;;9.00;4.53;;;12.20;99.90;;;;;;5052320;28;20422;-71
2023/09/27 03:09:05;;;;;;;4.43;3.70;;;12.20;99.90;;;;;;5035679;28;20431;-71
2023/09/27 03:11:33;;;;;;;4.13;3.77;;;12.20;99.90;;;;;;5034797;28;20433;-72
2023/09/27 03:13:59;;;;;;;4.07;3.67;;;12.10;99.90;;;;;;5052064;28;20179;-71
2023/09/27 03:16:24;;;;;;;4.33;3.90;;;12.10;99.90;;;;;;5052099;28;20509;-71
2023/09/27 03:18:50;;;;;;;7.97;4.13;;;12.10;99.90;;;;;;5053376;28;20460;-72
2023/09/27 03:21:17;;;;;;;6.63;4.10;;;12.00;99.90;;;;;;5053324;28;20187;-71
2023/09/27 03:23:43;;;;;;;4.20;3.70;;;11.90;99.90;;;;;;5053209;28;20555;-71
2023/09/27 03:26:09;;;;;;;5.67;4.40;;;11.80;99.90;;;;;;5051730;28;20445;-71
2023/09/27 03:28:34;;;;;;;8.00;4.20;;;11.80;99.90;;;;;;5053145;28;20787;-71
2023/09/27 03:31:00;;;;;;;4.23;3.77;;;11.80;99.90;;;;;;5051882;28;20183;-71
2023/09/27 03:33:27;;;;;;;5.53;3.60;;;11.80;99.90;;;;;;5051902;28;20276;-71
2023/09/27 03:35:53;;;;;;;4.83;3.73;;;11.80;99.90;;;;;;5035093;28;20471;-72
2023/09/27 03:38:19;;;;;;;6.07;3.50;;;11.90;99.90;;;;;;5052957;28;20431;-71
2023/09/27 03:40:44;;;;;;;4.17;3.77;;;12.00;99.90;;;;;;5051674;28;20973;-71
2023/09/27 03:43:10;;;;;;;6.30;3.93;;;12.00;99.90;;;;;;5051541;28;21058;-71
2023/09/27 03:45:35;;;;;;;5.03;3.23;;;12.00;99.90;;;;;;5034712;28;20215;-72
2023/09/27 03:48:05;;;;;;;4.50;3.27;;;12.00;99.90;;;;;;5052813;28;20185;-72
2023/09/27 03:50:30;;;;;;;5.87;3.50;;;12.10;99.90;;;;;;5052748;28;20646;-71
2023/09/27 03:52:57;;;;;;;3.33;3.03;;;12.30;99.90;;;;;;5051408;28;20427;-72
2023/09/27 03:55:22;;;;;;;3.30;3.07;;;12.50;99.90;;;;;;5052668;28;20730;-71
2023/09/27 03:57:48;;;;;;;5.60;3.07;;;12.40;99.90;;;;;;5052619;28;20535;-72
2023/09/27 04:00:16;;;;;;;3.73;3.10;;;12.30;99.90;;;;;;5052602;28;20180;-71
2023/09/27 04:02:41;;;;;;;3.40;3.00;;;12.30;99.90;;;;;;5052529;28;20186;-71
2023/09/27 04:05:07;;;;;;;3.73;3.27;;;12.20;99.90;;;;;;5050921;28;21011;-72
2023/09/27 04:07:34;;;;;;;3.87;3.13;;;12.20;99.90;;;;;;5052417;28;20265;-72
2023/09/27 04:10:00;;;;;;;6.03;3.03;;;12.10;99.90;;;;;;5051137;28;20418;-72
2023/09/27 04:12:26;;;;;;;4.80;3.40;;;12.10;99.90;;;;;;5052272;28;20407;-72
2023/09/27 04:14:52;;;;;;;5.03;3.53;;;12.10;99.90;;;;;;5050911;28;20693;-71
2023/09/27 04:17:18;;;;;;;3.57;3.10;;;12.10;99.90;;;;;;5050956;28;20187;-71
2023/09/27 04:19:43;;;;;;;5.30;3.20;;;12.10;99.90;;;;;;5052167;28;20497;-71
2023/09/27 04:22:09;;;;;;;4.13;3.73;;;12.10;99.90;;;;;;5034103;28;20734;-72
2023/09/27 04:24:34;;;;;;;7.70;3.50;;;12.00;99.90;;;;;;5051954;28;20222;-72
2023/09/27 04:27:00;;;;;;;9.70;3.97;;;12.00;99.90;;;;;;5050595;28;20189;-72
2023/09/27 04:29:28;;;;;;;6.03;4.40;;;11.90;99.90;;;;;;5051979;28;20172;-71
2023/09/27 04:31:54;;;;;;;6.10;3.93;;;11.70;99.90;;;;;;5050869;28;20556;-71
2023/09/27 04:34:20;;;;;;;5.53;4.30;;;11.70;99.90;;;;;;5050562;28;20473;-72
2023/09/27 04:36:45;;;;;;;6.30;4.60;;;11.60;99.90;;;;;;5051894;28;20231;-71
2023/09/27 04:39:13;;;;;;;4.10;3.70;;;11.50;99.90;;;;;;5051859;28;20273;-72
2023/09/27 04:41:39;;;;;;;7.00;4.00;;;11.40;99.90;;;;;;5050596;28;20311;-71
2023/09/27 04:44:05;;;;;;;6.10;4.70;;;11.40;99.90;;;;;;5050337;28;20514;-72
2023/09/27 04:46:32;;;;;;;4.80;4.30;;;11.40;99.90;;;;;;5033847;28;20188;-72
2023/09/27 04:48:58;;;;;;;6.33;5.73;;;11.30;99.90;;;;;;5051686;28;20554;-72
2023/09/27 04:51:24;;;;;;;5.80;5.10;;;11.30;99.90;;;;;;5051625;28;20428;-72
2023/09/27 04:53:50;;;;;;;4.80;4.40;;;11.20;99.90;;;;;;5051519;28;20426;-72
2023/09/27 04:56:15;;;;;;;4.73;4.30;;;11.20;99.90;;;;;;5051437;28;20312;-72
2023/09/27 04:58:41;;;;;;;6.60;4.70;;;11.30;99.90;;;;;;5051561;28;20244;-71
2023/09/27 05:01:07;;;;;;;5.80;4.33;;;11.30;99.90;;;;;;5050239;28;20183;-71
2023/09/27 05:03:32;;;;;;;6.60;4.20;;;11.30;99.90;;;;;;5051523;28;20564;-71
2023/09/27 05:05:58;;;;;;;6.27;4.73;;;11.20;99.90;;;;;;5051315;28;20202;-71
2023/09/27 05:08:25;;;;;;;5.60;4.20;;;11.20;99.90;;;;;;5033418;28;20191;-72
2023/09/27 05:10:51;;;;;;;5.60;3.77;;;11.10;99.90;;;;;;5051332;28;20655;-71
2023/09/27 05:13:21;;;;;;;4.87;3.57;;;11.10;99.90;;;;;;5050110;28;20410;-72
2023/09/27 05:15:51;;;;;;;6.93;4.97;;;11.10;99.90;;;;;;5050064;28;20593;-72
2023/09/27 05:18:18;;;;;;;6.50;4.60;;;11.10;99.90;;;;;;5051306;28;20422;-72
2023/09/27 05:20:46;;;;;;;6.00;4.33;;;11.10;99.90;;;;;;5049885;28;20995;-72
2023/09/27 05:23:12;;;;;;;6.03;4.90;;;11.20;99.90;;;;;;5051257;28;20426;-71
2023/09/27 05:25:38;;;;;;;11.10;4.30;;;11.20;99.90;;;;;;5051163;28;20466;-72
2023/09/27 05:28:04;;;;;;;7.07;4.43;;;11.10;99.90;;;;;;5051160;28;20911;-72
2023/09/27 05:30:31;;;;;;;9.03;3.87;;;11.20;99.90;;;;;;5051137;28;20492;-72
2023/09/27 05:32:57;;;;;;;4.37;3.77;;;11.20;99.90;;;;;;5051229;28;20425;-72
2023/09/27 05:35:23;;;;;;;4.50;4.07;;;11.30;99.90;;;;;;5054560;28;20444;-72
2023/09/27 05:37:49;;;;;;;6.37;4.63;;;11.30;99.90;;;;;;5055315;28;20206;-71
2023/09/27 05:40:15;;;;;;;6.87;4.97;;;11.30;99.90;;;;;;5037328;28;20466;-71
2023/09/27 05:42:41;;;;;;;6.80;4.33;;;11.30;99.90;;;;;;5054055;28;20434;-72
2023/09/27 05:45:13;;;;;;;6.00;4.40;;;11.40;99.90;;;;;;5053921;28;20294;-71
2023/09/27 05:47:39;;;;;;;4.07;3.67;;;11.30;99.90;;;;;;5055183;28;20563;-71
2023/09/27 05:50:08;;;;;;;5.93;4.67;;;11.40;99.90;;;;;;5055350;28;20806;-71
2023/09/27 05:52:34;;;;;;;10.77;4.10;;;11.40;99.90;;;;;;5055054;28;20425;-72
2023/09/27 05:55:00;;;;;;;5.70;3.50;;;11.30;99.90;;;;;;5054917;28;20450;-71
2023/09/27 05:57:26;;;;;;;8.00;4.27;;;11.30;99.90;;;;;;5053512;28;20442;-71
2023/09/27 05:59:51;;;;;;;6.83;4.17;;;11.30;99.90;;;;;;5053536;28;20218;-72
2023/09/27 06:02:17;;;;;;;4.93;4.40;;;11.40;99.90;;;;;;5054872;28;20587;-71
2023/09/27 06:04:44;;;;;;;5.33;3.90;;;11.60;99.90;;;;;;5054680;28;20219;-71
2023/09/27 06:07:13;;;;;;;3.30;2.97;;;12.20;99.90;;;;;;5054751;28;20206;-72
2023/09/27 06:09:43;;;;;;;7.90;5.83;;;12.70;99.90;;;;;;5054714;28;20936;-72
2023/09/27 06:12:10;;;;;;;8.87;6.60;;;13.40;99.90;;;;;;5054669;28;20479;-72
2023/09/27 06:14:36;;;;;;;6.70;4.63;;;13.90;99.90;;;;;;5054567;28;20963;-72
2023/09/27 06:17:02;;;;;;;5.40;3.70;;;14.20;99.90;;;;;;5054564;28;20556;-72
2023/09/27 06:19:30;;;;;;;4.70;3.63;;;14.30;99.90;;;;;;5054557;28;20412;-72
2023/09/27 06:21:55;;;;;;;4.90;3.13;;;14.20;99.90;;;;;;5054419;28;20413;-72
2023/09/27 06:24:21;;;;;;;4.13;3.60;;;14.00;99.90;;;;;;5054248;28;20469;-72
2023/09/27 06:26:47;;;;;;;8.30;3.40;;;13.70;99.90;;;;;;5053081;28;20297;-72
2023/09/27 06:29:13;;;;;;;4.77;3.50;;;13.70;99.90;;;;;;5054356;28;20460;-72
2023/09/27 06:31:38;;;;;;;3.40;3.00;;;13.70;99.90;;;;;;5053039;28;20172;-72
2023/09/27 06:34:04;;;;;;;4.90;3.20;;;13.60;99.90;;;;;;5036228;28;20219;-71
2023/09/27 06:36:34;;;;;;;5.10;3.53;;;13.70;99.90;;;;;;5054202;28;20187;-71
2023/09/27 06:39:00;;;;;;;4.70;4.17;;;13.90;99.90;;;;;;5054071;28;20233;-72
2023/09/27 06:41:26;;;;;;;3.87;2.97;;;13.90;99.90;;;;;;5054175;28;20464;-72
2023/09/27 06:43:53;;;;;;;4.60;4.20;;;13.80;99.90;;;;;;5053912;28;20915;-72
2023/09/27 06:46:19;;;;;;;5.27;3.60;;;13.70;99.90;;;;;;5052748;28;20176;-72
2023/09/27 06:48:45;;;;;;;4.50;4.10;;;13.60;99.90;;;;;;5053935;28;20415;-71
2023/09/27 06:51:13;;;;;;;7.27;4.13;;;13.50;99.90;;;;;;5053860;28;20411;-71
2023/09/27 06:53:39;;;;;;;6.97;3.87;;;13.50;99.90;;;;;;5052646;28;20184;-71
2023/09/27 06:56:06;;;;;;;5.70;3.90;;;13.40;99.90;;;;;;5053773;28;20454;-71
2023/09/27 06:58:32;;;;;;;4.13;3.73;;;13.50;99.90;;;;;;5052263;28;20946;-71
2023/09/27 07:00:58;;;;;;;5.23;3.67;;;13.50;99.90;;;;;;5053653;28;20508;-71
2023/09/27 07:03:25;;;;;;;4.63;3.90;;;13.60;99.90;;;;;;5052476;28;20270;-71
2023/09/27 07:05:53;;;;;;;5.37;4.77;;;13.70;99.90;;;;;;5053430;28;20828;-71
2023/09/27 07:08:20;;;;;;;4.87;4.37;;;13.70;99.90;;;;;;5053662;28;20414;-71
2023/09/27 07:10:46;;;;;;;12.43;5.67;;;13.80;99.90;;;;;;5053565;28;20973;-71
2023/09/27 07:13:12;;;;;;;10.87;5.90;;;13.70;99.90;;;;;;5053586;28;20795;-71
2023/09/27 07:15:37;;;;;;;8.10;5.30;;;13.70;99.90;;;;;;5035683;28;20434;-71
2023/09/27 07:18:04;;;;;;;10.23;5.30;;;13.70;99.90;;;;;;5053607;28;20184;-71
2023/09/27 07:20:34;;;;;;;4.60;4.20;;;13.70;99.90;;;;;;5053331;28;20178;-71
2023/09/27 07:23:03;;;;;;;6.47;5.40;;;13.70;99.90;;;;;;5052053;28;20810;-71
2023/09/27 07:25:32;;;;;;;7.30;4.83;;;13.80;99.90;;;;;;5051914;28;20473;-71
2023/09/27 07:28:00;;;;;;;6.30;4.20;;;13.70;99.90;;;;;;5035843;28;20448;-71
2023/09/27 07:30:26;;;;;;;5.27;4.77;;;13.70;99.90;;;;;;5052116;28;20932;-71
2023/09/27 07:32:56;;;;;;;5.53;4.90;;;13.80;99.90;;;;;;5053182;28;20524;-71
2023/09/27 07:35:23;;;;;;;6.50;5.40;;;13.80;99.90;;;;;;5052989;28;20432;-71
2023/09/27 07:37:49;;;;;;;7.63;5.50;;;13.90;99.90;;;;;;5035330;28;20423;-72
2023/09/27 07:40:15;;;;;;;5.30;4.80;;;14.00;99.90;;;;;;5052993;28;20422;-71
2023/09/27 07:42:42;;;;;;;6.07;4.83;;;14.10;99.90;;;;;;5035176;28;20195;-71
2023/09/27 07:45:20;;;;;;;11.00;5.40;;;14.20;99.90;;;;;;5052988;28;20208;-71
2023/09/27 07:47:53;;;;;;;8.07;5.00;;;14.30;99.90;;;;;;5052880;28;20920;-71
2023/09/27 07:50:21;;;;;;;5.03;4.20;;;14.40;99.90;;;;;;5052874;28;20408;-71
2023/09/27 07:52:47;;;;;;;4.80;3.73;;;14.50;99.90;;;;;;5052796;28;20944;-71
2023/09/27 07:55:14;;;;;;;7.10;4.33;;;14.70;99.90;;;;;;5052552;28;20436;-71
2023/09/27 07:57:43;;;;;;;7.90;4.60;;;14.80;99.90;;;;;;5052139;28;20483;-71
2023/09/27 08:00:10;;;;;;;5.40;4.23;;;14.90;99.90;;;;;;5052625;28;20504;-71
2023/09/27 08:02:36;;;;;;;6.30;4.13;;;15.10;99.90;;;;;;5052621;28;20502;-71
2023/09/27 08:05:09;;;;;;;10.00;5.00;;;15.20;99.90;;;;;;5051097;28;20478;-71
2023/09/27 08:07:38;;;;;;;6.23;4.47;;;15.40;99.90;;;;;;5035778;28;20888;-71
2023/09/27 08:10:06;;;;;;;6.60;3.80;;;15.50;99.90;;;;;;5052439;28;20413;-71
2023/09/27 08:12:33;;;;;;;10.83;4.00;;;15.70;99.90;;;;;;5051009;28;20422;-71
2023/09/27 08:15:00;;;;;;;6.57;3.67;;;15.90;99.90;;;;;;5052220;28;20429;-71
2023/09/27 08:17:26;;;;;;;4.27;3.87;;;16.10;99.90;;;;;;5052364;28;20799;-71
2023/09/27 08:19:52;;;;;;;4.40;3.97;;;16.10;99.90;;;;;;5052159;28;20427;-71
2023/09/27 08:22:17;;;;;;;5.40;4.00;;;16.20;99.90;;;;;;5052167;28;20218;-71
2023/09/27 08:24:43;;;;;;;8.43;3.93;;;16.30;99.90;;;;;;5050740;28;20224;-71
2023/09/27 08:27:09;;;;;;;4.77;3.97;;;16.40;99.90;;;;;;5052190;28;20199;-71
2023/09/27 08:29:35;;;;;;;5.03;3.80;;;16.60;99.90;;;;;;5051087;28;20261;-71
2023/09/27 08:32:00;;;;;;;3.93;3.53;;;16.70;99.90;;;;;;5050754;28;20208;-71
2023/09/27 08:34:26;;;;;;;3.23;2.93;;;16.80;99.90;;;;;;5050677;28;20444;-71
2023/09/27 08:36:52;;;;;;;6.90;4.20;;;16.90;99.90;;;;;;5051988;28;20702;-71
2023/09/27 08:39:18;;;;;;;3.67;3.13;;;17.10;99.90;;;;;;5051952;28;20417;-71
2023/09/27 08:41:44;;;;;;;5.60;3.60;;;17.20;99.90;;;;;;5033990;28;20228;-72
2023/09/27 08:44:11;;;;;;;7.73;3.70;;;17.40;99.90;;;;;;5050337;28;20498;-72
2023/09/27 08:46:38;;;;;;;4.87;4.10;;;17.60;99.90;;;;;;5051753;28;20173;-71
2023/09/27 08:49:04;;;;;;;4.07;3.67;;;17.80;99.90;;;;;;5051743;28;20836;-72
2023/09/27 08:51:30;;;;;;;5.50;3.43;;;18.00;99.90;;;;;;5051671;28;20449;-72
2023/09/27 08:53:56;;;;;;;4.97;3.77;;;18.20;99.90;;;;;;5050200;28;20429;-71
2023/09/27 08:56:26;;;;;;;3.93;3.10;;;18.40;99.90;;;;;;5050391;28;20455;-72
2023/09/27 08:58:52;;;;;;;4.33;2.93;;;18.60;99.90;;;;;;5050418;28;20192;-72
2023/09/27 09:01:18;;;;;;;7.23;3.00;;;18.80;99.90;;;;;;5051504;28;20405;-72
2023/09/27 09:03:43;;;;;;;10.30;2.73;;;19.00;99.90;;;;;;5033486;28;20479;-72
2023/09/27 09:06:11;;;;;;;5.20;2.60;;;19.30;99.90;;;;;;5050133;28;20282;-72
2023/09/27 09:08:43;;;;;;;4.33;2.53;;;19.50;99.90;;;;;;5049579;28;20176;-71
2023/09/27 09:11:10;;;;;;;3.00;2.80;;;19.90;99.90;;;;;;5051536;28;20914;-71
2023/09/27 09:14:17;;;;;;;5.23;3.43;;;20.30;99.90;;;;;;5051365;28;20422;-72
2023/09/27 09:16:50;;;;;;;4.80;2.70;;;20.80;99.90;;;;;;5048968;28;20475;-72
2023/09/27 09:19:20;;;;;;;8.50;3.10;;;21.30;99.90;;;;;;5049012;28;20410;-72
2023/09/27 09:21:54;;;;;;;4.20;2.97;;;21.70;99.90;;;;;;5040679;28;20476;-72
2023/09/27 09:24:20;;;;;;;3.30;2.83;;;22.00;99.90;;;;;;5049782;28;20480;-73
2023/09/27 09:26:46;;;;;;;3.50;3.03;;;22.50;99.90;;;;;;5049935;28;20476;-72
2023/09/27 09:29:12;;;;;;;4.70;3.80;;;22.90;99.90;;;;;;5051204;28;20915;-72
2023/09/27 09:31:39;;;;;;;11.50;3.90;;;23.50;99.90;;;;;;5049965;28;20180;-73
2023/09/27 09:34:13;;;;;;;6.27;4.53;;;23.90;99.90;;;;;;5051131;28;20479;-73
2023/09/27 09:36:39;;;;;;;7.63;4.07;;;23.90;99.90;;;;;;5051128;28;20414;-73
2023/09/27 09:39:13;;;;;;;7.43;4.50;;;24.40;99.90;;;;;;5049793;28;20442;-73
2023/09/27 09:41:49;;;;;;;10.83;4.03;;;25.00;99.90;;;;;;5051233;28;20181;-73
2023/09/27 09:44:20;;;;;;;6.47;3.57;;;25.20;99.90;;;;;;5050886;28;20601;-73
2023/09/27 09:46:47;;;;;;;6.17;3.43;;;25.60;99.90;;;;;;5050961;28;20426;-73
2023/09/27 09:49:16;;;;;;;6.90;4.47;;;25.70;99.90;;;;;;5051020;28;20407;-73
2023/09/27 09:51:47;;;;;;;6.20;3.90;;;26.10;99.90;;;;;;5050966;28;20415;-73
2023/09/27 09:54:47;;;;;;;4.97;3.10;;;26.40;99.90;;;;;;5051030;28;20430;-73
2023/09/27 09:57:13;;;;;;;6.70;3.43;;;26.60;99.90;;;;;;5049927;28;20451;-73
2023/09/27 09:59:48;;;;;;;5.20;3.47;;;26.80;99.90;;;;;;5050907;28;20429;-73
2023/09/27 10:02:31;;;;;;;6.37;3.50;;;27.10;99.90;;;;;;5051137;28;20429;-73
2023/09/27 10:04:59;;;;;;;4.60;2.83;;;27.30;99.90;;;;;;5050797;28;21200;-73
2023/09/27 10:07:25;;;;;;;9.17;2.80;;;27.60;99.90;;;;;;5050848;28;20421;-73
2023/09/27 10:09:52;;;;;;;5.10;3.13;;;27.80;99.90;;;;;;5050772;28;20410;-73
2023/09/27 10:12:21;;;;;;;3.23;2.93;;;28.10;99.90;;;;;;5050826;28;20508;-73
2023/09/27 10:14:48;;;;;;;5.40;2.53;;;28.10;99.90;;;;;;5050672;28;20438;-73
2023/09/27 10:17:26;;;;;;;7.67;3.17;;;28.30;99.90;;;;;;5049405;28;20877;-73
2023/09/27 10:20:12;;;;;;;4.30;2.70;;;28.10;99.90;;;;;;5051575;28;20431;-72
2023/09/27 10:22:42;;;;;;;4.77;3.00;;;28.10;99.90;;;;;;5054624;28;20928;-72
2023/09/27 10:25:32;;;;;;;4.37;2.80;;;28.20;99.90;;;;;;5054279;28;20458;-73
2023/09/27 10:28:06;;;;;;;12.33;3.30;;;28.20;99.90;;;;;;5054410;28;20406;-73
2023/09/27 10:30:41;;;;;;;3.37;2.57;;;28.40;99.90;;;;;;5054378;28;20949;-72
2023/09/27 10:33:15;;;;;;;4.37;2.73;;;28.90;99.90;;;;;;5054291;28;20448;-73
2023/09/27 10:35:46;;;;;;;10.27;3.33;;;29.20;99.90;;;;;;5054145;28;20438;-73
2023/09/27 10:38:12;;;;;;;5.60;4.00;;;29.10;99.90;;;;;;5054209;28;20414;-73
2023/09/27 10:40:42;;;;;;;5.27;3.50;;;29.50;99.90;;;;;;5052678;28;20861;-73
2023/09/27 10:43:08;;;;;;;6.60;4.03;;;29.50;99.90;;;;;;5054120;28;20402;-72
2023/09/27 10:45:33;;;;;;;6.63;3.50;;;29.00;99.90;;;;;;5052588;28;21125;-72
2023/09/27 10:48:18;;;;;;;3.80;3.40;;;28.90;99.90;;;;;;5052740;28;20426;-72
2023/09/27 10:50:57;;;;;;;5.23;3.30;;;29.00;99.90;;;;;;5052810;28;20191;-73
2023/09/27 10:53:23;;;;;;;8.80;3.20;;;29.00;99.90;;;;;;5053858;28;20445;-73
2023/09/27 10:55:49;;;;;;;5.47;3.13;;;29.30;99.90;;;;;;5053586;28;20457;-73
2023/09/27 10:58:17;;;;;;;4.20;3.30;;;29.30;99.90;;;;;;5053861;28;20935;-73
2023/09/27 11:01:11;;;;;;;5.10;3.83;;;29.40;99.90;;;;;;5053730;28;20661;-73
2023/09/27 11:03:37;;;;;;;5.60;4.00;;;29.00;99.90;;;;;;5051704;28;20441;-72
2023/09/27 11:06:14;;;;;;;15.53;3.30;;;29.30;99.90;;;;;;5053719;28;20560;-73
2023/09/27 11:08:40;;;;;;;6.20;3.10;;;29.50;99.90;;;;;;5053637;28;20919;-73
2023/09/27 11:11:11;;;;;;;4.93;2.77;;;29.60;99.90;;;;;;5053541;28;20422;-73
2023/09/27 11:13:44;;;;;;;3.80;3.40;;;29.60;99.90;;;;;;5052191;28;20432;-73
2023/09/27 11:16:14;;;;;;;3.27;2.97;;;29.30;99.90;;;;;;5053590;28;20488;-73
2023/09/27 11:18:44;;;;;;;7.97;3.37;;;29.30;99.90;;;;;;5053431;28;20409;-73
2023/09/27 11:21:12;;;;;;;5.30;3.40;;;29.50;99.90;;;;;;5053397;28;20831;-73
2023/09/27 11:23:56;;;;;;;9.80;3.43;;;29.30;99.90;;;;;;5053240;28;20417;-73
2023/09/27 11:26:24;;;;;;;3.37;2.67;;;29.30;99.90;;;;;;5053367;28;20443;-73
2023/09/27 11:29:05;;;;;;;4.00;3.03;;;29.00;99.90;;;;;;5051961;28;20824;-73
2023/09/27 11:31:35;;;;;;;5.70;3.53;;;28.80;99.90;;;;;;5052516;28;20402;-73
2023/09/27 11:34:14;;;;;;;6.50;2.60;;;28.70;99.90;;;;;;5051754;28;20414;-73
2023/09/27 11:36:47;;;;;;;4.10;2.63;;;28.60;99.90;;;;;;5053409;28;20788;-73
2023/09/27 11:39:18;;;;;;;5.03;3.03;;;28.50;99.90;;;;;;5053091;28;20401;-73
2023/09/27 11:41:45;;;;;;;3.23;2.90;;;28.50;99.90;;;;;;5051772;28;20434;-73
2023/09/27 11:44:24;;;;;;;6.50;2.27;;;28.50;99.90;;;;;;5052836;28;20814;-73
2023/09/27 11:47:02;;;;;;;6.13;2.97;;;28.40;99.90;;;;;;5052932;28;20417;-73
2023/09/27 11:49:27;;;;;;;6.97;2.50;;;28.30;99.90;;;;;;5052914;28;20422;-73
2023/09/27 11:51:53;;;;;;;6.93;2.73;;;28.10;99.90;;;;;;5052754;28;20464;-74
2023/09/27 11:54:18;;;;;;;3.30;2.40;;;28.10;99.90;;;;;;5051377;28;20265;-72
2023/09/27 11:56:44;;;;;;;3.70;2.80;;;27.90;99.90;;;;;;5052588;28;20219;-71
2023/09/27 11:59:12;;;;;;;4.13;2.57;;;27.90;99.90;;;;;;5034696;28;20652;-72
2023/09/27 12:01:39;;;;;;;3.10;2.60;;;27.80;99.90;;;;;;5051420;28;20549;-73
2023/09/27 12:04:05;;;;;;;8.27;2.90;;;27.80;99.90;;;;;;5052423;28;20425;-73
2023/09/27 12:06:31;;;;;;;3.20;2.37;;;27.80;99.90;;;;;;5052486;28;20418;-73
2023/09/27 12:08:58;;;;;;;2.87;2.57;;;27.90;99.90;;;;;;5052539;28;20765;-73
2023/09/27 12:11:26;;;;;;;2.60;2.40;;;27.90;99.90;;;;;;5051107;28;20781;-72
2023/09/27 12:13:52;;;;;;;3.23;2.20;;;27.80;99.90;;;;;;5050920;28;20457;-73
2023/09/27 12:16:21;;;;;;;6.10;2.20;;;27.70;99.90;;;;;;5052349;28;20480;-72
2023/09/27 12:18:47;;;;;;;3.87;2.60;;;27.90;99.90;;;;;;5050960;28;20180;-73
2023/09/27 12:21:13;;;;;;;5.30;2.60;;;27.80;99.90;;;;;;5051053;28;20475;-73
2023/09/27 12:23:40;;;;;;;8.07;2.33;;;28.00;99.90;;;;;;5052052;28;20417;-72
2023/09/27 12:26:06;;;;;;;3.80;2.60;;;27.90;99.90;;;;;;5051021;28;20488;-72
2023/09/27 12:28:36;;;;;;;3.67;2.33;;;27.70;99.90;;;;;;5052131;28;20399;-72
2023/09/27 12:31:04;;;;;;;2.80;2.30;;;27.50;99.90;;;;;;5052114;28;20457;-72
2023/09/27 12:33:31;;;;;;;6.40;2.03;;;27.40;99.90;;;;;;5052002;28;20414;-72
2023/09/27 12:35:56;;;;;;;4.13;2.20;;;27.30;99.90;;;;;;5051914;28;20860;-71
2023/09/27 12:38:23;;;;;;;3.23;2.13;;;27.20;99.90;;;;;;5051874;28;20468;-73
2023/09/27 12:40:49;;;;;;;3.33;2.60;;;27.40;99.90;;;;;;5051935;28;20693;-73
2023/09/27 12:43:15;;;;;;;5.23;2.40;;;27.30;99.90;;;;;;5050571;28;20498;-73
2023/09/27 12:45:40;;;;;;;3.93;2.03;;;27.20;99.90;;;;;;5051655;28;20223;-73
2023/09/27 12:48:06;;;;;;;4.13;2.47;;;27.30;99.90;;;;;;5033849;28;20226;-73